createdAt,value
2018-10-11T00:00:43.022Z,14.20
2018-10-11T00:03:11.424Z,14.30
2018-10-11T00:05:39.848Z,14.30
2018-10-11T00:08:08.949Z,14.10
2018-10-11T00:10:37.345Z,14.10
2018-10-11T00:13:05.772Z,14.00
2018-10-11T00:15:34.164Z,14.10
2018-10-11T00:18:02.625Z,14.00
2018-10-11T00:20:31.088Z,14.00
2018-10-11T00:22:59.671Z,14.00
2018-10-11T00:25:28.278Z,14.00
2018-10-11T00:27:56.708Z,14.00
2018-10-11T00:30:25.122Z,14.10
2018-10-11T00:32:53.531Z,14.10
2018-10-11T00:35:21.932Z,14.20
2018-10-11T00:37:50.329Z,14.10
2018-10-11T00:40:18.832Z,14.10
2018-10-11T00:42:47.225Z,14.20
2018-10-11T00:45:15.658Z,14.10
2018-10-11T00:47:44.093Z,14.10
2018-10-11T00:50:12.504Z,14.10
2018-10-11T00:52:40.888Z,14.00
2018-10-11T00:55:09.276Z,13.90
2018-10-11T00:57:37.770Z,13.90
2018-10-11T01:00:06.216Z,13.80
2018-10-11T01:02:34.618Z,13.90
2018-10-11T01:05:03.071Z,13.80
2018-10-11T01:07:31.479Z,13.80
2018-10-11T01:10:00.104Z,13.70
2018-10-11T01:12:28.442Z,14.00
2018-10-11T01:14:56.846Z,14.00
2018-10-11T01:17:25.320Z,13.80
2018-10-11T01:19:53.776Z,13.80
2018-10-11T01:22:22.148Z,13.70
2018-10-11T01:24:50.527Z,13.60
2018-10-11T01:27:18.957Z,13.70
2018-10-11T01:29:47.453Z,13.60
2018-10-11T01:32:15.765Z,13.60
2018-10-11T01:34:44.138Z,13.70
2018-10-11T01:37:12.559Z,13.60
2018-10-11T01:39:41.060Z,13.70
2018-10-11T01:42:09.742Z,13.70
2018-10-11T01:44:38.344Z,13.50
2018-10-11T01:47:07.098Z,13.60
2018-10-11T01:49:35.511Z,13.50
2018-10-11T01:52:03.972Z,13.50
2018-10-11T01:54:32.369Z,13.50
2018-10-11T01:57:00.813Z,13.50
2018-10-11T01:59:29.225Z,13.40
2018-10-11T02:01:57.621Z,13.40
2018-10-11T02:04:26.008Z,13.30
2018-10-11T02:06:54.525Z,13.30
2018-10-11T02:11:51.003Z,13.40
2018-10-11T02:14:19.391Z,13.40
2018-10-11T02:16:47.798Z,13.20
2018-10-11T02:19:16.252Z,13.50
2018-10-11T02:21:44.985Z,13.50
2018-10-11T02:24:13.378Z,13.30
2018-10-11T02:26:41.756Z,13.30
2018-10-11T02:29:11.565Z,13.30
2018-10-11T02:31:39.974Z,13.30
2018-10-11T02:34:08.385Z,13.30
2018-10-11T02:36:36.780Z,13.30
2018-10-11T02:39:06.962Z,13.30
2018-10-11T02:41:35.344Z,13.30
2018-10-11T02:44:03.767Z,13.40
2018-10-11T02:46:32.164Z,13.40
2018-10-11T02:49:00.592Z,13.50
2018-10-11T02:51:28.982Z,13.50
2018-10-11T02:53:57.399Z,13.30
2018-10-11T02:56:25.805Z,13.30
2018-10-11T02:59:58.948Z,13.40
2018-10-11T03:02:27.415Z,13.40
2018-10-11T03:04:55.992Z,13.30
2018-10-11T03:07:26.096Z,13.30
2018-10-11T03:09:54.628Z,13.30
2018-10-11T03:12:23.172Z,13.20
2018-10-11T03:14:51.592Z,13.10
2018-10-11T03:17:20.016Z,13.30
2018-10-11T03:19:48.434Z,13.30
2018-10-11T03:22:17.850Z,13.30
2018-10-11T03:24:46.280Z,13.30
2018-10-11T03:27:14.698Z,13.40
2018-10-11T03:32:11.181Z,13.20
2018-10-11T03:34:39.597Z,13.20
2018-10-11T03:37:07.981Z,13.00
2018-10-11T03:39:36.363Z,13.00
2018-10-11T03:42:04.825Z,13.20
2018-10-11T03:44:33.256Z,13.20
2018-10-11T03:47:01.789Z,13.20
2018-10-11T03:49:30.246Z,13.10
2018-10-11T03:51:59.201Z,13.00
2018-10-11T03:54:27.859Z,13.00
2018-10-11T03:56:56.849Z,13.10
2018-10-11T03:59:25.649Z,13.10
2018-10-11T04:01:54.453Z,13.10
2018-10-11T04:04:22.879Z,12.90
2018-10-11T04:06:51.480Z,12.80
2018-10-11T04:09:20.490Z,12.80
2018-10-11T04:11:48.884Z,12.80
2018-10-11T04:14:17.301Z,12.80
2018-10-11T04:16:45.792Z,12.70
2018-10-11T04:19:14.228Z,12.70
2018-10-11T04:21:42.645Z,12.80
2018-10-11T04:24:11.070Z,12.70
2018-10-11T04:26:39.840Z,12.70
2018-10-11T04:29:08.272Z,12.90
2018-10-11T04:31:36.689Z,12.90
2018-10-11T04:34:05.076Z,12.80
2018-10-11T04:36:33.589Z,13.00
2018-10-11T04:39:01.997Z,12.80
2018-10-11T04:41:30.417Z,12.90
2018-10-11T04:43:58.795Z,12.80
2018-10-11T04:46:27.239Z,12.70
2018-10-11T04:48:55.755Z,12.70
2018-10-11T04:51:25.403Z,12.40
2018-10-11T04:53:56.731Z,12.40
2018-10-11T04:56:27.364Z,12.30
2018-10-11T04:58:56.319Z,12.20
2018-10-11T05:01:25.073Z,12.10
2018-10-11T05:03:53.523Z,12.10
2018-10-11T05:06:22.048Z,12.10
2018-10-11T05:08:50.481Z,12.00
2018-10-11T05:11:18.953Z,12.00
2018-10-11T05:13:49.396Z,12.00
2018-10-11T05:16:18.316Z,11.90
2018-10-11T05:18:49.268Z,11.90
2018-10-11T05:21:17.732Z,11.90
2018-10-11T05:23:46.148Z,11.80
2018-10-11T05:26:14.652Z,11.80
2018-10-11T05:28:43.048Z,11.80
2018-10-11T05:33:40.225Z,11.70
2018-10-11T05:36:08.680Z,11.80
2018-10-11T05:38:37.117Z,11.80
2018-10-11T05:41:05.774Z,11.90
2018-10-11T05:46:04.076Z,12.00
2018-10-11T05:48:33.832Z,12.00
2018-10-11T05:51:04.226Z,12.20
2018-10-11T05:53:32.738Z,12.30
2018-10-11T05:56:01.292Z,12.30
2018-10-11T05:58:30.172Z,12.40
2018-10-11T06:00:58.645Z,12.50
2018-10-11T06:03:27.132Z,12.60
2018-10-11T06:05:55.621Z,12.70
2018-10-11T06:08:24.182Z,12.70
2018-10-11T06:10:52.688Z,12.60
2018-10-11T06:13:21.148Z,12.60
2018-10-11T06:15:49.689Z,12.60
2018-10-11T06:18:18.112Z,12.60
2018-10-11T06:20:46.620Z,12.60
2018-10-11T06:23:15.020Z,12.60
2018-10-11T06:25:43.465Z,12.60
2018-10-11T06:28:11.976Z,12.60
2018-10-11T06:30:40.493Z,12.60
2018-10-11T06:33:08.978Z,12.60
2018-10-11T06:35:37.903Z,12.60
2018-10-11T06:38:06.392Z,12.60
2018-10-11T06:40:35.829Z,12.60
2018-10-11T06:43:04.429Z,12.70
2018-10-11T06:45:32.916Z,12.70
2018-10-11T06:48:04.129Z,12.80
2018-10-11T06:50:33.459Z,12.80
2018-10-11T06:53:01.987Z,12.80
2018-10-11T06:55:30.433Z,12.90
2018-10-11T07:00:27.413Z,13.10
2018-10-11T07:02:55.921Z,13.20
2018-10-11T07:05:24.365Z,13.20
2018-10-11T07:07:52.804Z,13.20
2018-10-11T07:10:21.206Z,13.30
2018-10-11T07:12:49.628Z,13.40
2018-10-11T07:15:18.085Z,13.50
2018-10-11T07:17:46.481Z,13.60
2018-10-11T07:20:14.908Z,13.70
2018-10-11T07:22:43.316Z,13.80
2018-10-11T07:25:11.763Z,13.90
2018-10-11T07:27:40.188Z,13.90
2018-10-11T07:30:08.963Z,13.90
2018-10-11T07:32:37.385Z,14.00
2018-10-11T07:35:05.914Z,14.20
2018-10-11T07:37:34.301Z,14.20
2018-10-11T07:40:02.733Z,14.20
2018-10-11T07:42:31.141Z,14.40
2018-10-11T07:44:59.532Z,14.40
2018-10-11T07:47:27.961Z,14.50
2018-10-11T07:49:56.429Z,14.70
2018-10-11T07:52:24.809Z,14.80
2018-10-11T07:54:53.240Z,14.90
2018-10-11T07:57:21.673Z,14.90
2018-10-11T07:59:50.080Z,15.00
2018-10-11T08:02:18.580Z,15.20
2018-10-11T08:04:47.188Z,15.20
2018-10-11T08:07:15.634Z,15.40
2018-10-11T08:09:44.103Z,15.50
2018-10-11T08:12:12.872Z,15.50
2018-10-11T08:14:41.298Z,15.60
2018-10-11T08:17:10.083Z,15.60
2018-10-11T08:19:38.284Z,15.70
2018-10-11T08:22:06.840Z,15.80
2018-10-11T08:24:35.314Z,15.90
2018-10-11T08:27:03.685Z,16.00
2018-10-11T08:29:32.258Z,16.10
2018-10-11T08:32:00.712Z,16.10
2018-10-11T08:34:29.276Z,16.20
2018-10-11T08:36:57.783Z,16.30
2018-10-11T08:39:26.208Z,16.50
2018-10-11T08:41:54.637Z,16.50
2018-10-11T08:44:23.082Z,16.70
2018-10-11T08:46:51.508Z,16.80
2018-10-11T08:49:20.564Z,16.90
2018-10-11T08:51:48.978Z,17.00
2018-10-11T08:54:22.672Z,17.20
2018-10-11T08:56:51.375Z,17.40
2018-10-11T08:59:19.920Z,17.70
2018-10-11T09:01:48.278Z,17.80
2018-10-11T09:04:16.807Z,18.00
2018-10-11T09:06:45.148Z,18.10
2018-10-11T09:09:13.533Z,18.20
2018-10-11T09:11:42.409Z,18.20
2018-10-11T09:14:10.921Z,18.30
2018-10-11T09:16:39.330Z,18.40
2018-10-11T09:19:08.057Z,18.40
2018-10-11T09:21:36.534Z,18.40
2018-10-11T09:26:55.845Z,18.50
2018-10-11T09:29:24.379Z,18.50
2018-10-11T09:31:52.835Z,18.50
2018-10-11T09:34:21.235Z,18.60
2018-10-11T09:36:49.707Z,18.70
2018-10-11T09:39:18.136Z,18.90
2018-10-11T09:41:46.547Z,18.90
2018-10-11T09:44:14.937Z,19.00
2018-10-11T09:46:43.368Z,19.00
2018-10-11T09:49:11.766Z,19.00
2018-10-11T09:51:40.156Z,19.10
2018-10-11T09:54:08.550Z,19.30
2018-10-11T09:57:29.488Z,19.40
2018-10-11T09:59:58.597Z,19.60
2018-10-11T10:02:27.653Z,19.60
2018-10-11T10:04:59.656Z,19.60
2018-10-11T10:07:28.369Z,19.80
2018-10-11T10:09:57.017Z,20.00
2018-10-11T10:12:25.621Z,19.90
2018-10-11T10:14:54.384Z,20.00
2018-10-11T10:17:23.268Z,20.10
2018-10-11T10:19:51.709Z,20.20
2018-10-11T10:22:20.112Z,20.30
2018-10-11T10:24:48.681Z,20.30
2018-10-11T10:27:17.167Z,20.40
2018-10-11T10:29:45.489Z,20.50
2018-10-11T10:32:13.948Z,20.50
2018-10-11T10:34:42.430Z,20.60
2018-10-11T10:37:10.940Z,20.70
2018-10-11T10:39:39.484Z,20.80
2018-10-11T10:42:07.996Z,20.90
2018-10-11T10:44:36.488Z,21.00
2018-10-11T10:47:04.902Z,21.00
2018-10-11T10:49:33.306Z,21.00
2018-10-11T10:52:01.774Z,21.10
2018-10-11T10:54:31.407Z,21.10
2018-10-11T10:57:00.424Z,21.00
2018-10-11T10:59:28.923Z,21.00
2018-10-11T11:01:57.460Z,21.00
2018-10-11T11:04:26.273Z,21.20
2018-10-11T11:06:54.961Z,21.20
2018-10-11T11:09:23.743Z,21.20
2018-10-11T11:11:52.372Z,21.20
2018-10-11T11:14:20.852Z,21.20
2018-10-11T11:16:49.365Z,21.30
2018-10-11T11:19:18.089Z,21.30
2018-10-11T11:21:46.477Z,21.50
2018-10-11T11:24:14.897Z,21.50
2018-10-11T11:26:43.429Z,21.60
2018-10-11T11:29:11.896Z,21.70
2018-10-11T11:31:40.320Z,21.80
2018-10-11T11:34:08.753Z,21.90
2018-10-11T11:36:37.314Z,21.90
2018-10-11T11:39:08.172Z,22.10
2018-10-11T11:41:36.757Z,22.10
2018-10-11T11:44:05.470Z,22.20
2018-10-11T11:46:34.126Z,22.30
2018-10-11T11:49:02.511Z,22.30
2018-10-11T11:51:30.975Z,22.40
2018-10-11T11:53:59.365Z,22.50
2018-10-11T11:56:27.793Z,22.50
2018-10-11T11:58:56.245Z,22.60
2018-10-11T12:01:24.701Z,22.70
2018-10-11T12:03:53.092Z,22.80
2018-10-11T12:06:21.541Z,22.80
2018-10-11T12:08:50.010Z,22.80
2018-10-11T12:11:18.437Z,22.70
2018-10-11T12:13:47.020Z,22.60
2018-10-11T12:16:15.437Z,22.40
2018-10-11T12:18:43.872Z,22.30
2018-10-11T12:21:12.265Z,22.30
2018-10-11T12:23:40.674Z,22.30
2018-10-11T12:26:09.172Z,22.20
2018-10-11T12:28:37.799Z,22.10
2018-10-11T12:31:06.488Z,22.00
2018-10-11T12:33:34.903Z,22.00
2018-10-11T12:36:03.967Z,22.00
2018-10-11T12:38:32.448Z,22.00
2018-10-11T12:41:01.568Z,22.10
2018-10-11T12:43:29.408Z,22.10
2018-10-11T12:45:57.958Z,22.10
2018-10-11T12:48:26.380Z,22.10
2018-10-11T12:50:54.886Z,22.00
2018-10-11T12:53:23.310Z,22.00
2018-10-11T12:55:51.745Z,22.10
2018-10-11T12:58:20.139Z,22.00
2018-10-11T13:00:48.642Z,22.10
2018-10-11T13:03:17.063Z,22.20
2018-10-11T13:05:45.440Z,22.10
2018-10-11T13:08:13.925Z,22.30
2018-10-11T13:10:43.400Z,22.40
2018-10-11T13:13:12.025Z,22.50
2018-10-11T13:15:41.550Z,22.50
2018-10-11T13:18:09.564Z,22.40
2018-10-11T13:20:37.947Z,22.50
2018-10-11T13:23:09.774Z,22.60
2018-10-11T13:25:34.844Z,22.60
2018-10-11T13:28:03.303Z,22.60
2018-10-11T13:30:31.760Z,22.50
2018-10-11T13:33:00.187Z,22.50
2018-10-11T13:35:28.774Z,22.50
2018-10-11T13:37:57.184Z,22.50
2018-10-11T13:40:25.889Z,22.50
2018-10-11T13:42:54.302Z,22.50
2018-10-11T13:45:22.858Z,22.50
2018-10-11T13:47:51.478Z,22.50
2018-10-11T13:50:20.534Z,22.50
2018-10-11T13:52:49.037Z,22.40
2018-10-11T13:55:17.441Z,22.30
2018-10-11T13:57:45.855Z,22.40
2018-10-11T14:00:14.254Z,22.30
2018-10-11T14:02:42.696Z,22.20
2018-10-11T14:05:11.172Z,22.20
2018-10-11T14:07:39.562Z,22.20
2018-10-11T14:10:08.185Z,22.00
2018-10-11T14:12:36.612Z,22.00
2018-10-11T14:15:05.691Z,21.90
2018-10-11T14:17:34.269Z,21.90
2018-10-11T14:20:02.991Z,22.00
2018-10-11T14:22:31.412Z,22.00
2018-10-11T14:24:59.825Z,22.20
2018-10-11T14:27:28.291Z,22.20
2018-10-11T14:29:56.809Z,22.40
2018-10-11T14:32:25.206Z,22.40
2018-10-11T14:34:53.821Z,22.40
2018-10-11T14:37:22.716Z,22.60
2018-10-11T14:39:51.068Z,22.70
2018-10-11T14:42:19.590Z,22.70
2018-10-11T14:47:16.273Z,22.90
2018-10-11T14:49:44.736Z,22.90
2018-10-11T14:52:13.233Z,22.90
2018-10-11T14:54:41.658Z,22.90
2018-10-11T14:57:10.136Z,22.70
2018-10-11T14:59:38.571Z,22.70
2018-10-11T15:02:07.201Z,22.40
2018-10-11T15:04:35.749Z,22.10
2018-10-11T15:07:04.199Z,21.90
2018-10-11T15:09:32.606Z,21.80
2018-10-11T15:12:01.076Z,21.60
2018-10-11T15:14:30.235Z,21.50
2018-10-11T15:16:58.757Z,21.40
2018-10-11T15:21:55.377Z,21.40
2018-10-11T15:24:23.908Z,21.40
2018-10-11T15:26:52.606Z,21.40
2018-10-11T15:29:21.156Z,21.40
2018-10-11T15:31:49.517Z,21.40
2018-10-11T15:34:17.960Z,21.20
2018-10-11T15:36:46.429Z,21.20
2018-10-11T15:39:14.853Z,21.10
2018-10-11T15:41:43.282Z,21.10
2018-10-11T15:44:12.349Z,21.30
2018-10-11T15:46:41.486Z,21.40
2018-10-11T15:49:10.232Z,21.40
2018-10-11T15:51:38.826Z,21.40
2018-10-11T15:54:07.828Z,21.40
2018-10-11T15:56:36.418Z,21.50
2018-10-11T15:59:04.895Z,21.50
2018-10-11T16:01:33.391Z,21.60
2018-10-11T16:04:01.832Z,21.50
2018-10-11T16:06:30.454Z,21.50
2018-10-11T16:08:59.076Z,21.40
2018-10-11T16:11:27.431Z,21.30
2018-10-11T16:13:56.288Z,21.30
2018-10-11T16:16:24.812Z,21.30
2018-10-11T16:18:53.263Z,21.30
2018-10-11T16:21:21.789Z,21.30
2018-10-11T16:23:50.306Z,21.30
2018-10-11T16:26:19.390Z,21.20
2018-10-11T16:28:47.871Z,21.10
2018-10-11T16:31:16.360Z,21.10
2018-10-11T16:33:44.826Z,21.00
2018-10-11T16:36:13.263Z,20.90
2018-10-11T16:38:41.709Z,20.70
2018-10-11T16:41:10.205Z,20.60
2018-10-11T16:43:38.629Z,20.50
2018-10-11T16:46:07.249Z,20.40
2018-10-11T16:48:35.683Z,20.30
2018-10-11T16:51:04.122Z,20.30
2018-10-11T16:53:32.560Z,20.10
2018-10-11T16:58:29.208Z,20.10
2018-10-11T17:00:57.671Z,20.00
2018-10-11T17:03:26.199Z,20.00
2018-10-11T17:05:54.638Z,20.00
2018-10-11T17:08:23.284Z,19.90
2018-10-11T17:10:51.829Z,19.90
2018-10-11T17:13:20.269Z,19.90
2018-10-11T17:15:48.685Z,19.90
2018-10-11T17:18:17.116Z,19.80
2018-10-11T17:20:45.652Z,19.70
2018-10-11T17:23:14.105Z,19.70
2018-10-11T17:25:44.433Z,19.60
2018-10-11T17:28:12.792Z,19.40
2018-10-11T17:30:41.242Z,19.40
2018-10-11T17:33:09.683Z,19.30
2018-10-11T17:35:38.080Z,19.30
2018-10-11T17:38:06.733Z,19.20
2018-10-11T17:40:35.458Z,19.00
2018-10-11T17:43:03.877Z,19.00
2018-10-11T17:45:32.537Z,19.00
2018-10-11T17:48:01.097Z,18.80
2018-10-11T17:50:29.684Z,18.70
2018-10-11T17:52:58.534Z,18.70
2018-10-11T17:55:26.968Z,18.70
2018-10-11T17:57:55.413Z,18.60
2018-10-11T18:00:24.105Z,18.60
2018-10-11T18:02:52.570Z,18.40
2018-10-11T18:05:21.052Z,18.40
2018-10-11T18:07:49.556Z,18.40
2018-10-11T18:10:18.012Z,18.40
2018-10-11T18:12:46.589Z,18.20
2018-10-11T18:15:15.029Z,18.20
2018-10-11T18:17:43.601Z,18.20
2018-10-11T18:20:12.068Z,18.20
2018-10-11T18:22:40.481Z,18.10
2018-10-11T18:25:09.503Z,18.10
2018-10-11T18:27:37.968Z,18.00
2018-10-11T18:30:08.751Z,18.00
2018-10-11T18:32:37.159Z,18.00
2018-10-11T18:35:06.429Z,17.90
2018-10-11T18:37:34.943Z,17.80
2018-10-11T18:40:03.780Z,17.80
2018-10-11T18:42:32.244Z,17.80
2018-10-11T18:45:00.656Z,17.80
2018-10-11T18:47:29.092Z,17.70
2018-10-11T18:49:57.716Z,17.70
2018-10-11T18:52:26.103Z,17.70
2018-10-11T18:54:54.540Z,17.60
2018-10-11T18:57:23.070Z,17.50
2018-10-11T18:59:51.508Z,17.50
2018-10-11T19:02:20.685Z,17.50
2018-10-11T19:04:49.098Z,17.40
2018-10-11T19:07:17.507Z,17.30
2018-10-11T19:09:46.012Z,17.20
2018-10-11T19:12:14.434Z,17.20
2018-10-11T19:14:42.881Z,17.10
2018-10-11T19:17:11.336Z,17.20
2018-10-11T19:19:39.835Z,17.10
2018-10-11T19:22:08.981Z,17.00
2018-10-11T19:24:37.426Z,17.00
2018-10-11T19:27:05.908Z,17.00
2018-10-11T19:29:34.333Z,16.90
2018-10-11T19:32:02.754Z,16.90
2018-10-11T19:34:31.198Z,16.80
2018-10-11T19:37:00.082Z,16.80
2018-10-11T19:39:28.626Z,16.80
2018-10-11T19:41:57.108Z,16.80
2018-10-11T19:44:25.624Z,16.70
2018-10-11T19:46:55.280Z,16.70
2018-10-11T19:49:23.779Z,16.70
2018-10-11T19:51:52.228Z,16.80
2018-10-11T19:54:20.791Z,16.80
2018-10-11T19:56:49.213Z,16.80
2018-10-11T19:59:17.691Z,16.70
2018-10-11T20:01:46.233Z,16.70
2018-10-11T20:04:14.680Z,16.70
2018-10-11T20:06:43.193Z,16.70
2018-10-11T20:09:12.428Z,16.80
2018-10-11T20:11:40.874Z,16.70
2018-10-11T20:14:09.756Z,16.70
2018-10-11T20:16:38.190Z,16.70
2018-10-11T20:19:06.679Z,16.70
2018-10-11T20:21:35.151Z,16.70
2018-10-11T20:24:03.580Z,16.70
2018-10-11T20:26:32.069Z,16.70
2018-10-11T20:29:00.500Z,16.70
2018-10-11T20:31:28.964Z,16.80
2018-10-11T20:33:57.410Z,16.80
2018-10-11T20:36:25.909Z,16.80
2018-10-11T20:38:55.251Z,16.90
2018-10-11T20:41:23.726Z,16.90
2018-10-11T20:43:52.271Z,16.90
2018-10-11T20:46:21.516Z,16.80
2018-10-11T20:48:50.167Z,16.70
2018-10-11T20:51:19.130Z,16.70
2018-10-11T20:53:47.632Z,16.70
2018-10-11T20:56:16.099Z,16.70
2018-10-11T20:58:44.556Z,16.70
2018-10-11T21:01:12.963Z,16.70
2018-10-11T21:03:41.508Z,16.80
2018-10-11T21:06:09.959Z,16.80
2018-10-11T21:08:39.174Z,16.80
2018-10-11T21:11:08.685Z,16.80
2018-10-11T21:13:37.205Z,16.80
2018-10-11T21:16:05.861Z,16.80
2018-10-11T21:18:35.324Z,16.80
2018-10-11T21:21:04.336Z,16.80
2018-10-11T21:23:33.044Z,16.80
2018-10-11T21:26:01.600Z,16.80
2018-10-11T21:28:30.059Z,16.70
2018-10-11T21:30:58.480Z,16.70
2018-10-11T21:33:27.142Z,16.70
2018-10-11T21:35:55.777Z,16.60
2018-10-11T21:38:24.265Z,16.60
2018-10-11T21:40:52.808Z,16.50
2018-10-11T21:43:21.242Z,16.50
2018-10-11T21:45:49.605Z,16.50
2018-10-11T21:48:18.221Z,16.50
2018-10-11T21:50:46.643Z,16.50
2018-10-11T21:53:15.097Z,16.50
2018-10-11T21:55:43.520Z,16.50
2018-10-11T21:58:11.966Z,16.50
2018-10-11T22:00:45.716Z,16.50
2018-10-11T22:03:14.105Z,16.50
2018-10-11T22:05:42.736Z,16.50
2018-10-11T22:08:11.390Z,16.50
2018-10-11T22:10:40.785Z,16.50
2018-10-11T22:13:09.250Z,16.50
2018-10-11T22:15:37.673Z,16.50
2018-10-11T22:18:06.107Z,16.40
2018-10-11T22:20:34.521Z,16.30
2018-10-11T22:23:02.970Z,16.30
2018-10-11T22:25:31.473Z,16.20
2018-10-11T22:27:59.893Z,16.20
2018-10-11T22:30:28.288Z,16.20
2018-10-11T22:32:56.743Z,16.20
2018-10-11T22:35:25.189Z,16.20
2018-10-11T22:37:57.798Z,16.20
2018-10-11T22:40:26.773Z,16.10
2018-10-11T22:42:55.809Z,16.10
2018-10-11T22:45:24.935Z,16.20
2018-10-11T22:47:54.079Z,16.10
2018-10-11T22:50:22.813Z,16.10
2018-10-11T22:52:51.255Z,16.10
2018-10-11T22:55:19.661Z,16.10
2018-10-11T22:57:48.093Z,16.10
2018-10-11T23:00:16.525Z,16.00
2018-10-11T23:02:44.957Z,15.90
2018-10-11T23:05:13.394Z,15.70
2018-10-11T23:07:41.863Z,15.70
2018-10-11T23:10:10.288Z,15.80
2018-10-11T23:12:38.696Z,15.70
2018-10-11T23:15:07.331Z,15.70
2018-10-11T23:17:35.721Z,15.70
2018-10-11T23:20:04.235Z,15.80
2018-10-11T23:22:32.697Z,15.80
2018-10-11T23:25:01.154Z,15.80
2018-10-11T23:27:29.576Z,15.90
2018-10-11T23:29:58.131Z,15.90
2018-10-11T23:32:26.600Z,15.90
2018-10-11T23:34:55.164Z,15.90
2018-10-11T23:39:51.780Z,15.90
2018-10-11T23:42:20.168Z,15.90
2018-10-11T23:44:48.590Z,15.80
2018-10-11T23:47:17.094Z,15.90
2018-10-11T23:49:45.658Z,15.90
2018-10-11T23:52:14.048Z,15.80
2018-10-11T23:54:42.473Z,15.80
2018-10-11T23:57:11.124Z,15.70
2018-10-11T23:59:39.500Z,15.80
